Time;durP1;ratioP1;P1;durP2;ratioP2;P2;SDS_P1;SDS_P2;PMS_P1;PMS_P2;Temp;Humidity;BMP_temperature;BMP_pressure;BME280_temperature;BME280_humidity;BME280_pressure;Samples;Min_cycle;Max_cycle;Signal;HPM_P1;HPM_P2
2022/12/22 03:28:03;;;;;;;57.28;24.02;;;;;;;;;;8332767;28;20045;-85
2022/12/22 03:32:08;;;;;;;56.63;21.88;;;;;;;;;;8334535;28;20065;-85
2022/12/22 03:36:13;;;;;;;65.20;23.00;;;;;;;;;;8332207;28;20057;-85
2022/12/22 03:40:17;;;;;;;76.80;33.95;;;;;;;;;;8333522;28;20068;-85
2022/12/22 03:48:41;;;;;;;54.92;23.75;;;;;;;;;;8332358;28;20107;-85
2022/12/22 03:52:46;;;;;;;59.15;26.23;;;;;;;;;;8332335;28;20048;-85
2022/12/22 03:56:51;;;;;;;53.65;23.40;;;;;;;;;;8333272;28;20072;-85
2022/12/22 04:00:54;;;;;;;68.05;26.33;;;;;;;;;;8331641;28;20045;-85
2022/12/22 04:04:58;;;;;;;78.38;30.98;;;;;;;;;;8331759;28;20065;-85
2022/12/22 04:09:04;;;;;;;69.57;27.02;;;;;;;;;;8331771;28;20047;-84
2022/12/22 04:13:07;;;;;;;56.67;23.02;;;;;;;;;;8332350;28;20049;-84
2022/12/22 04:17:11;;;;;;;51.05;21.05;;;;;;;;;;8332118;28;20345;-84
2022/12/22 04:21:18;;;;;;;55.45;21.95;;;;;;;;;;8335868;28;20053;-84
2022/12/22 04:25:24;;;;;;;56.28;22.80;;;;;;;;;;8338579;28;20056;-84
2022/12/22 04:29:29;;;;;;;67.53;25.20;;;;;;;;;;8338394;28;20107;-84
2022/12/22 04:33:32;;;;;;;56.42;24.00;;;;;;;;;;8338130;28;20045;-84
2022/12/22 04:37:37;;;;;;;76.60;30.45;;;;;;;;;;8337354;28;20050;-85
2022/12/22 04:41:43;;;;;;;95.63;39.40;;;;;;;;;;8337406;28;20045;-85
2022/12/22 04:45:48;;;;;;;53.28;22.40;;;;;;;;;;8337503;28;20041;-85
2022/12/22 04:49:51;;;;;;;47.13;20.38;;;;;;;;;;8337623;28;20056;-85
2022/12/22 04:53:54;;;;;;;62.85;26.90;;;;;;;;;;8337455;28;20041;-84
2022/12/22 04:57:59;;;;;;;63.45;25.58;;;;;;;;;;8336097;28;20086;-84
2022/12/22 05:02:03;;;;;;;55.58;22.65;;;;;;;;;;8337033;28;20045;-83
2022/12/22 05:06:07;;;;;;;61.72;25.45;;;;;;;;;;8337189;28;20064;-84
2022/12/22 05:10:12;;;;;;;54.72;20.90;;;;;;;;;;8337933;28;20046;-83
2022/12/22 05:14:17;;;;;;;49.72;21.25;;;;;;;;;;8336379;28;20072;-84
2022/12/22 05:18:23;;;;;;;54.10;21.20;;;;;;;;;;8337260;28;20069;-83
2022/12/22 05:22:28;;;;;;;54.75;21.83;;;;;;;;;;8335196;28;20053;-84
2022/12/22 05:26:33;;;;;;;49.45;22.20;;;;;;;;;;8336580;28;20069;-83
2022/12/22 05:30:38;;;;;;;55.85;24.15;;;;;;;;;;8336065;28;20041;-85
2022/12/22 05:34:41;;;;;;;55.55;21.85;;;;;;;;;;8336245;28;20041;-85
2022/12/22 05:38:45;;;;;;;54.33;21.50;;;;;;;;;;8335366;28;20080;-85
2022/12/22 05:42:49;;;;;;;51.85;21.30;;;;;;;;;;8336385;28;20076;-85
2022/12/22 05:46:54;;;;;;;65.28;29.15;;;;;;;;;;8335350;28;20033;-85
2022/12/22 05:50:58;;;;;;;75.10;29.88;;;;;;;;;;8335780;28;20069;-85
2022/12/22 05:55:03;;;;;;;61.28;26.50;;;;;;;;;;8335684;28;20038;-86
2022/12/22 05:59:07;;;;;;;72.00;29.73;;;;;;;;;;8334109;28;20045;-85
2022/12/22 06:03:12;;;;;;;67.50;28.08;;;;;;;;;;8335335;28;20061;-86
2022/12/22 06:07:17;;;;;;;75.40;27.83;;;;;;;;;;8334836;28;20120;-85
2022/12/22 06:11:22;;;;;;;78.18;28.58;;;;;;;;;;8334547;28;20047;-85
2022/12/22 06:15:27;;;;;;;87.05;28.67;;;;;;;;;;8333541;28;20046;-85
2022/12/22 06:19:31;;;;;;;94.20;34.83;;;;;;;;;;8334697;28;20041;-85
2022/12/22 06:23:35;;;;;;;90.68;29.55;;;;;;;;;;8334601;28;20065;-85
2022/12/22 06:27:38;;;;;;;82.35;30.60;;;;;;;;;;8333829;28;20052;-84
2022/12/22 06:31:42;;;;;;;86.60;31.55;;;;;;;;;;8333930;28;20076;-84
2022/12/22 06:35:49;;;;;;;93.57;34.67;;;;;;;;;;8334060;28;20069;-87
2022/12/22 06:39:53;;;;;;;82.85;28.58;;;;;;;;;;8333597;28;20124;-85
2022/12/22 06:43:56;;;;;;;70.78;25.20;;;;;;;;;;8333367;28;20068;-87
2022/12/22 06:48:00;;;;;;;45.58;18.55;;;;;;;;;;8334462;28;20044;-86
2022/12/22 06:52:07;;;;;;;53.38;17.55;;;;;;;;;;8333904;28;20430;-86
2022/12/22 06:56:12;;;;;;;72.20;24.77;;;;;;;;;;8333280;28;20072;-86
2022/12/22 07:00:17;;;;;;;65.80;22.65;;;;;;;;;;8333402;28;20045;-86
2022/12/22 07:04:21;;;;;;;55.75;18.23;;;;;;;;;;8333038;28;20048;-86
2022/12/22 07:08:26;;;;;;;34.80;14.02;;;;;;;;;;8332976;28;20041;-86
2022/12/22 07:12:30;;;;;;;58.42;24.58;;;;;;;;;;8333335;28;20044;-86
2022/12/22 07:16:33;;;;;;;61.58;23.77;;;;;;;;;;8333295;28;20121;-92
2022/12/22 07:20:38;;;;;;;59.58;22.77;;;;;;;;;;8333415;28;20099;-92
2022/12/22 07:24:43;;;;;;;68.22;23.30;;;;;;;;;;8333551;28;20041;-92
2022/12/22 07:28:48;;;;;;;62.78;24.67;;;;;;;;;;8333045;28;20076;-93
2022/12/22 07:32:53;;;;;;;58.33;22.90;;;;;;;;;;8332334;28;20049;-91
2022/12/22 07:36:58;;;;;;;67.75;24.08;;;;;;;;;;8332088;28;20114;-95
2022/12/22 07:42:43;;;;;;;70.55;23.52;;;;;;;;;;8334225;28;20128;-92
2022/12/22 07:45:29;;;;;;;61.47;23.15;;;;;;;;;;8333927;28;20041;-93
2022/12/22 07:53:54;;;;;;;62.47;23.40;;;;;;;;;;8344550;28;20041;-94
2022/12/22 07:58:02;;;;;;;59.53;22.48;;;;;;;;;;8344023;28;20049;-94
2022/12/22 08:02:07;;;;;;;56.65;23.42;;;;;;;;;;8348339;28;20041;-94
2022/12/22 08:06:13;;;;;;;35.50;15.43;;;;;;;;;;8354194;28;20037;-95
2022/12/22 08:10:20;;;;;;;54.50;20.90;;;;;;;;;;8354606;28;20053;-96
2022/12/22 08:14:31;;;;;;;33.72;13.02;;;;;;;;;;8355107;28;20048;-96
2022/12/22 08:18:46;;;;;;;36.28;15.15;;;;;;;;;;8357956;28;20061;-96
2022/12/22 08:23:03;;;;;;;37.38;18.48;;;;;;;;;;8352445;28;20099;-95
2022/12/22 08:27:18;;;;;;;44.53;17.30;;;;;;;;;;8357225;28;20046;-96
2022/12/22 08:31:41;;;;;;;41.97;17.35;;;;;;;;;;8362044;28;20038;-95
2022/12/22 08:35:50;;;;;;;46.70;18.42;;;;;;;;;;8339548;28;20049;-95
2022/12/22 08:39:58;;;;;;;35.70;15.63;;;;;;;;;;8344872;28;20041;-95
2022/12/22 08:49:19;;;;;;;45.85;19.77;;;;;;;;;;8993226;22;20046;-95
2022/12/22 08:53:29;;;;;;;38.63;17.35;;;;;;;;;;8363698;28;20053;-96
2022/12/22 08:57:37;;;;;;;35.42;16.33;;;;;;;;;;8378665;28;20065;-96
2022/12/22 09:01:49;;;;;;;32.13;14.23;;;;;;;;;;8363307;28;20071;-93
2022/12/22 09:06:01;;;;;;;39.00;16.63;;;;;;;;;;8354116;28;20048;-92
2022/12/22 09:10:06;;;;;;;44.15;17.70;;;;;;;;;;8370356;28;20048;-93
2022/12/22 09:14:12;;;;;;;30.80;15.52;;;;;;;;;;8370744;28;20045;-92
2022/12/22 09:18:16;;;;;;;38.38;17.23;;;;;;;;;;8371179;28;20037;-95
2022/12/22 09:22:24;;;;;;;36.60;15.88;;;;;;;;;;8351743;28;20098;-91
2022/12/22 09:26:30;;;;;;;36.63;14.20;;;;;;;;;;8369567;28;20051;-92
2022/12/22 09:30:34;;;;;;;35.65;16.10;;;;;;;;;;8369448;28;20047;-92
2022/12/22 09:34:39;;;;;;;38.00;15.35;;;;;;;;;;8368691;28;20041;-92
2022/12/22 09:38:44;;;;;;;37.83;15.00;;;;;;;;;;8354210;28;20040;-95
2022/12/22 09:42:50;;;;;;;41.55;17.08;;;;;;;;;;8375324;28;20033;-93
2022/12/22 09:46:58;;;;;;;43.97;17.42;;;;;;;;;;8370467;28;20041;-91
2022/12/22 09:51:05;;;;;;;40.85;17.50;;;;;;;;;;8371713;28;20053;-94
2022/12/22 09:55:35;;;;;;;55.95;26.17;;;;;;;;;;8373143;28;20055;-93
2022/12/22 09:59:41;;;;;;;70.00;29.50;;;;;;;;;;8375521;28;20037;-92
2022/12/22 10:03:51;;;;;;;53.95;22.88;;;;;;;;;;8354613;28;20041;-92
2022/12/22 10:08:01;;;;;;;40.05;17.27;;;;;;;;;;8352739;28;20041;-90
2022/12/22 10:12:13;;;;;;;67.18;31.75;;;;;;;;;;8370260;28;20045;-92
2022/12/22 10:16:21;;;;;;;43.70;20.33;;;;;;;;;;8349794;28;20053;-93
2022/12/22 10:20:30;;;;;;;34.13;14.25;;;;;;;;;;8370637;28;20032;-91
2022/12/22 10:24:38;;;;;;;34.65;14.55;;;;;;;;;;8369613;28;20045;-93
2022/12/22 10:28:48;;;;;;;47.58;19.90;;;;;;;;;;8353498;28;20084;-93
2022/12/22 10:33:07;;;;;;;54.63;19.52;;;;;;;;;;8351328;28;20057;-91
2022/12/22 10:37:12;;;;;;;54.70;19.05;;;;;;;;;;8369141;28;20047;-93
2022/12/22 10:41:20;;;;;;;48.13;18.27;;;;;;;;;;8356294;28;20067;-93
2022/12/22 10:45:29;;;;;;;54.17;20.15;;;;;;;;;;8350896;28;20052;-94
2022/12/22 10:49:38;;;;;;;47.35;18.63;;;;;;;;;;8368107;28;20040;-94
2022/12/22 10:53:47;;;;;;;46.47;19.55;;;;;;;;;;8368660;28;20041;-93
2022/12/22 10:57:52;;;;;;;55.40;20.55;;;;;;;;;;8368495;28;20045;-91
2022/12/22 11:02:36;;;;;;;59.00;23.35;;;;;;;;;;8373712;28;20041;-90
2022/12/22 11:06:43;;;;;;;37.05;14.48;;;;;;;;;;8368142;28;20041;-93
2022/12/22 11:10:55;;;;;;;39.22;17.85;;;;;;;;;;8369286;28;20098;-93
2022/12/22 11:15:10;;;;;;;63.15;22.98;;;;;;;;;;8379626;28;20044;-93
2022/12/22 11:19:37;;;;;;;66.13;26.63;;;;;;;;;;8362691;28;20105;-92
2022/12/22 11:23:54;;;;;;;69.20;30.40;;;;;;;;;;8360583;28;20076;-93
2022/12/22 11:28:16;;;;;;;44.38;18.77;;;;;;;;;;8360959;28;20045;-92
2022/12/22 11:32:38;;;;;;;35.78;15.02;;;;;;;;;;8378161;28;20041;-93
2022/12/22 11:37:00;;;;;;;45.40;21.08;;;;;;;;;;8358143;28;20094;-92
2022/12/22 11:41:18;;;;;;;43.00;18.92;;;;;;;;;;8362572;28;20045;-94
2022/12/22 11:45:38;;;;;;;51.78;25.00;;;;;;;;;;8357787;28;20108;-90
2022/12/22 11:49:57;;;;;;;47.10;21.45;;;;;;;;;;8379420;28;20049;-94
2022/12/22 11:54:33;;;;;;;54.28;21.30;;;;;;;;;;8362005;28;20132;-95
2022/12/22 11:58:54;;;;;;;24.77;11.15;;;;;;;;;;8372832;28;20102;-94
2022/12/22 12:03:23;;;;;;;45.35;20.02;;;;;;;;;;8354845;28;20120;-89
2022/12/22 12:07:30;;;;;;;51.40;21.38;;;;;;;;;;8372412;28;20041;-89
2022/12/22 12:11:41;;;;;;;53.85;24.38;;;;;;;;;;8376454;28;20045;-93
2022/12/22 12:15:53;;;;;;;45.60;20.92;;;;;;;;;;8360703;28;20049;-92
2022/12/22 12:20:19;;;;;;;59.88;27.58;;;;;;;;;;8360578;28;20045;-93
2022/12/22 12:25:02;;;;;;;66.47;29.52;;;;;;;;;;8359548;28;20091;-92
2022/12/22 12:29:16;;;;;;;48.97;21.70;;;;;;;;;;8372883;28;20045;-94
2022/12/22 12:33:29;;;;;;;52.95;26.20;;;;;;;;;;8381073;28;20041;-94
2022/12/22 12:37:41;;;;;;;55.53;26.30;;;;;;;;;;8368157;28;20055;-91
2022/12/22 12:41:58;;;;;;;30.83;14.32;;;;;;;;;;8379559;28;20036;-96
2022/12/22 12:46:38;;;;;;;51.53;21.42;;;;;;;;;;8382466;28;20048;-94
2022/12/22 12:50:46;;;;;;;63.67;25.40;;;;;;;;;;8372451;28;20056;-92
2022/12/22 12:54:52;;;;;;;44.90;22.85;;;;;;;;;;8354134;28;20044;-93
2022/12/22 12:59:00;;;;;;;54.80;24.60;;;;;;;;;;8371862;28;20063;-92
2022/12/22 13:03:06;;;;;;;55.08;26.00;;;;;;;;;;8353953;28;20045;-95
2022/12/22 13:07:14;;;;;;;50.00;22.50;;;;;;;;;;8373463;28;20037;-93
2022/12/22 13:11:35;;;;;;;44.33;19.55;;;;;;;;;;8389063;28;20041;-95
2022/12/22 13:15:43;;;;;;;38.85;18.55;;;;;;;;;;8384592;28;20041;-89
2022/12/22 13:19:52;;;;;;;38.72;18.15;;;;;;;;;;8389470;28;20041;-94
2022/12/22 13:24:05;;;;;;;38.83;19.50;;;;;;;;;;8367286;28;20048;-94
2022/12/22 13:28:17;;;;;;;36.90;18.35;;;;;;;;;;8383213;28;20052;-93
2022/12/22 13:32:26;;;;;;;35.17;16.60;;;;;;;;;;8365192;28;20052;-91
2022/12/22 13:36:33;;;;;;;39.58;18.10;;;;;;;;;;8355298;28;20041;-90
2022/12/22 13:40:45;;;;;;;30.90;16.75;;;;;;;;;;8356171;28;20048;-90
2022/12/22 13:44:52;;;;;;;33.83;15.45;;;;;;;;;;8363553;28;20049;-88
2022/12/22 13:54:15;;;;;;;36.83;17.25;;;;;;;;;;8380610;28;20061;-92
2022/12/22 14:14:14;;;;;;;46.42;19.67;;;;;;;;;;8345726;28;20045;-92
2022/12/22 14:28:49;;;;;;;67.90;30.10;;;;;;;;;;8257141;28;20395;-93
2022/12/22 14:38:33;;;;;;;69.40;25.75;;;;;;;;;;8259808;28;20050;-93
2022/12/22 14:47:39;;;;;;;54.90;24.23;;;;;;;;;;8248012;28;20057;-92
2022/12/22 15:13:15;;;;;;;43.72;24.73;;;;;;;;;;8378976;28;20044;-89
2022/12/22 15:17:24;;;;;;;28.77;14.00;;;;;;;;;;8371762;28;20041;-93
2022/12/22 15:21:32;;;;;;;30.35;15.25;;;;;;;;;;8354144;28;20048;-91
2022/12/22 15:25:45;;;;;;;64.35;32.38;;;;;;;;;;8382908;28;20052;-91
2022/12/22 15:30:12;;;;;;;57.22;25.95;;;;;;;;;;8367371;28;20057;-92
2022/12/22 15:34:26;;;;;;;60.85;27.60;;;;;;;;;;8366889;28;20059;-91
2022/12/22 15:43:17;;;;;;;92.05;48.38;;;;;;;;;;8254479;28;20046;-92
2022/12/22 15:52:50;;;;;;;81.60;37.15;;;;;;;;;;8251381;28;20073;-89
2022/12/22 15:56:57;;;;;;;69.07;29.38;;;;;;;;;;8242955;28;20043;-90
2022/12/22 16:06:32;;;;;;;61.60;26.20;;;;;;;;;;8258609;28;20065;-92
2022/12/22 16:10:47;;;;;;;69.57;35.13;;;;;;;;;;8254683;28;20061;-96
2022/12/22 16:14:59;;;;;;;57.65;27.05;;;;;;;;;;8255948;28;20042;-96
2022/12/22 16:19:12;;;;;;;63.95;28.08;;;;;;;;;;8368851;28;20066;-96
2022/12/22 16:23:24;;;;;;;75.78;36.35;;;;;;;;;;8430672;28;20131;-96
2022/12/22 16:27:36;;;;;;;60.20;30.88;;;;;;;;;;8434337;28;20040;-95
2022/12/22 16:31:48;;;;;;;50.47;23.65;;;;;;;;;;8444945;28;20052;-95
2022/12/22 16:35:57;;;;;;;51.45;25.35;;;;;;;;;;8433999;28;20052;-96
2022/12/22 16:40:03;;;;;;;39.75;18.80;;;;;;;;;;8453203;28;20044;-95
2022/12/22 16:44:10;;;;;;;48.47;23.52;;;;;;;;;;8428314;28;20093;-95
2022/12/22 16:53:34;;;;;;;73.60;37.72;;;;;;;;;;8438014;22;20078;-96
2022/12/22 17:02:40;;;;;;;122.45;38.28;;;;;;;;;;8420044;28;20055;-92
2022/12/22 17:06:51;;;;;;;106.32;40.15;;;;;;;;;;8415967;28;20067;-95
2022/12/22 17:11:04;;;;;;;161.48;59.60;;;;;;;;;;8398739;28;20055;-94
2022/12/22 17:15:20;;;;;;;145.32;50.58;;;;;;;;;;8450200;28;20044;-95
2022/12/22 17:19:47;;;;;;;52.30;25.07;;;;;;;;;;8352747;28;20060;-90
2022/12/22 17:24:02;;;;;;;71.82;33.13;;;;;;;;;;8325314;28;20045;-91
2022/12/22 17:28:10;;;;;;;57.17;27.98;;;;;;;;;;8321663;28;20064;-93
2022/12/22 17:32:22;;;;;;;44.15;23.05;;;;;;;;;;8344082;28;20042;-93
2022/12/22 17:36:35;;;;;;;61.50;30.77;;;;;;;;;;8346551;28;20056;-92
2022/12/22 17:45:25;;;;;;;46.17;22.27;;;;;;;;;;8237399;28;20074;-93
2022/12/22 17:49:32;;;;;;;46.83;23.65;;;;;;;;;;8257851;28;20046;-92
2022/12/22 17:53:44;;;;;;;53.60;22.63;;;;;;;;;;8242296;28;20062;-93
2022/12/22 17:58:06;;;;;;;42.58;19.92;;;;;;;;;;8255361;28;20154;-93
2022/12/22 18:02:37;;;;;;;43.85;22.23;;;;;;;;;;8239444;28;20083;-93
2022/12/22 18:06:45;;;;;;;44.72;20.27;;;;;;;;;;8244204;28;20046;-94
2022/12/22 18:15:19;;;;;;;62.78;23.67;;;;;;;;;;8238251;28;20050;-95
2022/12/22 18:19:37;;;;;;;90.35;33.45;;;;;;;;;;8228474;28;20105;-94
2022/12/22 18:23:45;;;;;;;141.18;52.10;;;;;;;;;;8236486;28;20043;-93
2022/12/22 18:33:25;;;;;;;63.72;25.15;;;;;;;;;;8440111;28;20039;-94
2022/12/22 18:37:39;;;;;;;65.97;28.08;;;;;;;;;;8422939;28;20054;-93
2022/12/22 18:41:53;;;;;;;43.25;19.35;;;;;;;;;;8421835;28;20129;-93
2022/12/22 18:46:16;;;;;;;74.18;30.17;;;;;;;;;;8448059;28;20095;-93
2022/12/22 18:50:32;;;;;;;52.47;25.55;;;;;;;;;;8453900;28;20335;-95
2022/12/22 18:54:48;;;;;;;54.35;27.70;;;;;;;;;;8444560;28;20051;-94
2022/12/22 18:58:56;;;;;;;64.70;32.90;;;;;;;;;;8447702;28;20044;-94
2022/12/22 19:03:16;;;;;;;38.33;18.10;;;;;;;;;;8429596;28;20051;-94
2022/12/22 19:16:33;;;;;;;75.13;33.15;;;;;;;;;;8448706;28;20101;-94
2022/12/22 19:20:51;;;;;;;50.33;24.35;;;;;;;;;;8415562;28;20044;-95
2022/12/22 19:25:10;;;;;;;50.80;22.98;;;;;;;;;;8448144;28;20056;-94
2022/12/22 19:29:32;;;;;;;45.63;21.73;;;;;;;;;;8448013;28;20067;-94
2022/12/22 19:33:49;;;;;;;48.60;21.48;;;;;;;;;;8432345;28;20044;-94
2022/12/22 19:37:55;;;;;;;56.90;22.52;;;;;;;;;;8450487;28;20040;-92
2022/12/22 19:42:27;;;;;;;43.63;19.77;;;;;;;;;;8439374;28;20063;-93
2022/12/22 19:46:42;;;;;;;56.95;25.50;;;;;;;;;;8439514;28;20043;-92
2022/12/22 19:50:51;;;;;;;47.65;23.48;;;;;;;;;;8436238;28;20108;-93
2022/12/22 19:55:00;;;;;;;38.97;18.48;;;;;;;;;;8303077;28;20050;-93
2022/12/22 19:59:21;;;;;;;51.92;24.15;;;;;;;;;;8287991;28;20037;-93
2022/12/22 20:03:34;;;;;;;46.70;21.73;;;;;;;;;;8318580;28;20181;-93
2022/12/22 20:07:39;;;;;;;36.95;18.15;;;;;;;;;;8303143;28;20049;-94
2022/12/22 20:12:02;;;;;;;60.92;23.55;;;;;;;;;;8289346;28;20061;-93
2022/12/22 20:21:55;;;;;;;32.20;12.65;;;;;;;;;;8158888;29;20125;-94
2022/12/22 20:26:21;;;;;;;91.38;33.00;;;;;;;;;;8154033;29;20044;-92
2022/12/22 20:30:47;;;;;;;52.60;24.65;;;;;;;;;;8193915;28;20077;-94
2022/12/22 20:34:58;;;;;;;37.53;18.02;;;;;;;;;;8272079;28;20046;-93
2022/12/22 20:44:59;;;;;;;86.82;36.40;;;;;;;;;;8264908;28;20053;-93
2022/12/22 20:53:56;;;;;;;54.47;24.75;;;;;;;;;;8275810;28;20086;-93
2022/12/22 20:58:55;;;;;;;44.00;18.65;;;;;;;;;;8327421;22;20061;-94
2022/12/22 21:03:12;;;;;;;45.33;20.13;;;;;;;;;;8352524;28;20048;-93
2022/12/22 21:07:30;;;;;;;52.05;22.13;;;;;;;;;;8351278;28;20049;-95
2022/12/22 21:11:39;;;;;;;40.10;19.67;;;;;;;;;;8363422;28;20099;-94
2022/12/22 21:15:55;;;;;;;51.63;24.98;;;;;;;;;;8377307;28;20045;-94
2022/12/22 21:20:02;;;;;;;51.28;23.13;;;;;;;;;;8358503;28;20044;-93
2022/12/22 21:28:45;;;;;;;62.25;23.70;;;;;;;;;;8321950;28;20056;-95
2022/12/22 21:32:58;;;;;;;52.75;21.48;;;;;;;;;;8371518;28;20094;-94
2022/12/22 21:37:46;;;;;;;48.10;21.60;;;;;;;;;;8324701;28;20110;-93
2022/12/22 21:42:25;;;;;;;34.55;16.67;;;;;;;;;;8328638;28;20073;-93
2022/12/22 21:51:22;;;;;;;33.13;15.73;;;;;;;;;;8294545;28;20038;-89
2022/12/22 21:55:28;;;;;;;37.75;16.30;;;;;;;;;;8300913;28;20049;-88
2022/12/22 21:59:34;;;;;;;36.58;16.67;;;;;;;;;;8299767;28;20132;-88
2022/12/22 22:03:39;;;;;;;40.17;16.38;;;;;;;;;;8296391;28;20082;-95
2022/12/22 22:07:43;;;;;;;33.20;15.95;;;;;;;;;;8352518;28;20048;-90
2022/12/22 22:16:12;;;;;;;30.05;14.07;;;;;;;;;;8351014;28;20049;-88
2022/12/22 22:20:17;;;;;;;34.90;16.88;;;;;;;;;;8370020;28;20049;-89
2022/12/22 22:24:22;;;;;;;35.70;15.30;;;;;;;;;;8370289;28;20037;-88
2022/12/22 22:28:26;;;;;;;31.08;14.82;;;;;;;;;;8373406;28;20041;-88
2022/12/22 22:32:42;;;;;;;32.50;13.35;;;;;;;;;;8370091;28;20040;-94
2022/12/22 22:36:58;;;;;;;33.45;15.23;;;;;;;;;;8355317;28;20049;-89
2022/12/22 22:41:10;;;;;;;39.53;18.27;;;;;;;;;;8354635;28;20045;-90
2022/12/22 22:45:26;;;;;;;36.58;15.95;;;;;;;;;;8352471;28;20053;-90
2022/12/22 22:49:41;;;;;;;34.55;16.80;;;;;;;;;;8352728;28;20053;-90
2022/12/22 22:53:48;;;;;;;34.78;16.27;;;;;;;;;;8371326;28;20056;-89
2022/12/22 22:58:18;;;;;;;35.10;15.68;;;;;;;;;;8370653;28;20045;-90
2022/12/22 23:07:04;;;;;;;32.75;13.75;;;;;;;;;;8369672;28;20102;-91
2022/12/22 23:11:24;;;;;;;37.88;15.35;;;;;;;;;;8371704;28;20048;-89
2022/12/22 23:15:28;;;;;;;32.95;15.43;;;;;;;;;;8353592;28;20049;-89
2022/12/22 23:19:32;;;;;;;38.47;16.30;;;;;;;;;;8352770;28;20052;-89
2022/12/22 23:23:39;;;;;;;32.85;14.93;;;;;;;;;;8351361;28;20045;-88
2022/12/22 23:27:43;;;;;;;28.92;12.13;;;;;;;;;;8353891;28;20048;-89
2022/12/22 23:31:47;;;;;;;29.95;14.05;;;;;;;;;;8352940;28;20095;-89
2022/12/22 23:35:51;;;;;;;36.00;14.90;;;;;;;;;;8367072;28;20041;-90
2022/12/22 23:40:00;;;;;;;35.17;14.18;;;;;;;;;;8349522;28;20056;-89
2022/12/22 23:44:04;;;;;;;34.03;14.35;;;;;;;;;;8366498;28;20044;-89
2022/12/22 23:48:09;;;;;;;38.78;14.07;;;;;;;;;;8348678;28;20045;-89
2022/12/22 23:52:12;;;;;;;30.23;13.13;;;;;;;;;;8348722;28;20041;-91
2022/12/22 23:56:18;;;;;;;36.40;15.88;;;;;;;;;;8348457;28;20052;-89
